Lakefield, Canada
Current Conditions -  °F | °C
As of 10:00 PM on Monday 22 Dec 2014 (Local Time) from CYPQ Reporting Station
Haze Haze  
Wind Chill: 20°   Ceiling: 800
Heat Index: 27°   Visibility: 5mi
Dew Point: 27°   Wind: 6mph
Humidity: 100%   Direction: 70°ENE
Pressure: 30.1"   Gusts: NA
Location:  44.43°N, 78.27°W
Report Text: CYPQ 230300Z AUTO 07005KT 5SM BR OVC008 M03/M03 A3010 RMK SLP201
Loading
Personal Weather Stations






























Interactive Weather Map New forecast layout! Learn more

10-Day Weather Forecast

Advertisements
Track Severe Weather on mobile